Time;durP1;ratioP1;P1;durP2;ratioP2;P2;SDS_P1;SDS_P2;PMS_P1;PMS_P2;Temp;Humidity;BMP_temperature;BMP_pressure;BME280_temperature;BME280_humidity;BME280_pressure;Samples;Min_cycle;Max_cycle;Signal;HPM_P1;HPM_P2
2022/04/07 00:01:23;;;;;;;13.68;5.05;;;;;;;;;;5030153;28;20033;-66
2022/04/07 00:03:49;;;;;;;10.43;4.20;;;;;;;;;;5034165;28;20622;-66
2022/04/07 00:06:15;;;;;;;13.85;4.65;;;;;;;;;;5026492;28;20029;-66
2022/04/07 00:08:41;;;;;;;14.27;4.38;;;;;;;;;;5030651;28;20530;-65
2022/04/07 00:11:08;;;;;;;11.57;4.47;;;;;;;;;;5034039;28;20632;-66
2022/04/07 00:13:35;;;;;;;12.45;5.00;;;;;;;;;;5026457;28;21094;-68
2022/04/07 00:16:01;;;;;;;12.00;5.22;;;;;;;;;;5032245;28;20056;-66
2022/04/07 00:18:27;;;;;;;10.15;4.30;;;;;;;;;;5019026;28;20033;-67
2022/04/07 00:20:54;;;;;;;11.32;4.18;;;;;;;;;;5026385;28;20385;-66
2022/04/07 00:23:21;;;;;;;12.05;4.72;;;;;;;;;;5023004;28;20033;-66
2022/04/07 00:25:47;;;;;;;9.82;4.15;;;;;;;;;;5025181;28;20039;-66
2022/04/07 00:28:13;;;;;;;12.00;4.25;;;;;;;;;;5020975;28;20244;-66
2022/04/07 00:30:40;;;;;;;10.93;4.07;;;;;;;;;;5027586;28;20033;-66
2022/04/07 00:33:09;;;;;;;10.05;4.13;;;;;;;;;;5026731;28;20581;-66
2022/04/07 00:35:36;;;;;;;10.63;3.92;;;;;;;;;;5018753;28;20049;-66
2022/04/07 00:38:02;;;;;;;11.93;3.85;;;;;;;;;;5025579;28;20033;-66
2022/04/07 00:40:29;;;;;;;10.63;4.10;;;;;;;;;;5018957;28;20032;-66
2022/04/07 00:42:55;;;;;;;11.90;4.00;;;;;;;;;;5034376;28;21355;-67
2022/04/07 00:45:22;;;;;;;11.15;3.72;;;;;;;;;;5023550;28;20236;-66
2022/04/07 00:47:49;;;;;;;10.90;3.58;;;;;;;;;;5029002;28;20025;-66
2022/04/07 00:50:15;;;;;;;13.52;5.32;;;;;;;;;;5032718;28;20095;-66
2022/04/07 00:52:46;;;;;;;13.50;4.10;;;;;;;;;;5019927;28;20040;-66
2022/04/07 00:55:13;;;;;;;11.50;3.72;;;;;;;;;;5022225;28;20033;-66
2022/04/07 00:57:40;;;;;;;10.85;3.60;;;;;;;;;;5021106;28;20521;-66
2022/04/07 01:00:07;;;;;;;11.90;3.88;;;;;;;;;;5019956;28;20433;-66
2022/04/07 01:02:33;;;;;;;11.43;3.90;;;;;;;;;;5023542;28;20128;-67
2022/04/07 01:05:00;;;;;;;13.18;3.97;;;;;;;;;;5026391;28;20032;-66
2022/04/07 01:07:26;;;;;;;13.20;4.20;;;;;;;;;;5027102;28;20061;-66
2022/04/07 01:09:52;;;;;;;10.50;3.83;;;;;;;;;;5029467;28;20056;-66
2022/04/07 01:12:19;;;;;;;11.48;3.60;;;;;;;;;;5045808;28;20032;-66
2022/04/07 01:15:01;;;;;;;9.05;3.22;;;;;;;;;;5027577;28;20511;-66
2022/04/07 01:17:28;;;;;;;9.73;3.50;;;;;;;;;;5026283;28;20048;-66
2022/04/07 01:19:54;;;;;;;8.70;3.35;;;;;;;;;;5029384;28;20278;-66
2022/04/07 01:22:21;;;;;;;13.55;3.55;;;;;;;;;;5035192;28;20038;-66
2022/04/07 01:24:47;;;;;;;10.65;4.00;;;;;;;;;;5032621;28;20052;-66
2022/04/07 01:27:14;;;;;;;8.45;3.20;;;;;;;;;;5033993;28;20026;-68
2022/04/07 01:29:41;;;;;;;10.73;3.15;;;;;;;;;;5025741;28;20264;-66
2022/04/07 01:32:12;;;;;;;12.95;3.50;;;;;;;;;;5024846;28;20132;-66
2022/04/07 01:34:39;;;;;;;10.73;3.65;;;;;;;;;;5016499;28;20044;-66
2022/04/07 01:37:06;;;;;;;10.15;3.53;;;;;;;;;;5020448;28;20037;-67
2022/04/07 01:39:32;;;;;;;11.10;3.30;;;;;;;;;;5011444;28;20116;-66
2022/04/07 01:41:58;;;;;;;9.70;3.53;;;;;;;;;;5013942;28;20356;-66
2022/04/07 01:44:25;;;;;;;12.30;3.58;;;;;;;;;;5012624;28;20573;-66
2022/04/07 01:46:51;;;;;;;9.07;3.28;;;;;;;;;;5016957;28;20029;-66
2022/04/07 01:49:19;;;;;;;13.85;3.42;;;;;;;;;;5011842;28;20025;-66
2022/04/07 01:51:46;;;;;;;12.52;3.28;;;;;;;;;;5021295;28;20139;-66
2022/04/07 01:54:12;;;;;;;;;;;;;;;;;;5018879;28;20044;-66
2022/04/07 01:56:39;;;;;;;11.77;3.42;;;;;;;;;;5009746;28;20015;-66
2022/04/07 01:59:08;;;;;;;9.40;3.47;;;;;;;;;;5020184;28;20510;-66
2022/04/07 02:01:34;;;;;;;10.23;3.10;;;;;;;;;;5013757;28;20061;-66
2022/04/07 02:04:01;;;;;;;11.43;3.58;;;;;;;;;;5015462;28;20045;-66
2022/04/07 02:06:27;;;;;;;10.82;3.20;;;;;;;;;;5011882;28;20036;-66
2022/04/07 02:08:54;;;;;;;12.38;3.53;;;;;;;;;;5019228;28;20034;-66
2022/04/07 02:11:22;;;;;;;10.23;3.63;;;;;;;;;;5014296;28;20407;-66
2022/04/07 02:13:49;;;;;;;8.65;3.50;;;;;;;;;;5013718;28;20029;-66
2022/04/07 02:16:15;;;;;;;;;;;;;;;;;;5010444;28;20033;-66
2022/04/07 02:18:41;;;;;;;10.45;3.58;;;;;;;;;;5019877;28;20389;-66
2022/04/07 02:21:07;;;;;;;9.75;3.40;;;;;;;;;;5018060;28;20401;-66
2022/04/07 02:23:41;;;;;;;12.90;3.90;;;;;;;;;;5011964;28;21268;-66
2022/04/07 02:26:11;;;;;;;12.82;3.63;;;;;;;;;;5015966;28;20030;-66
2022/04/07 02:28:38;;;;;;;14.60;3.72;;;;;;;;;;5016701;28;20111;-66
2022/04/07 02:31:04;;;;;;;;;;;;;;;;;;5011333;28;20380;-66
2022/04/07 02:33:30;;;;;;;12.13;3.63;;;;;;;;;;5014605;28;20338;-66
2022/04/07 02:35:56;;;;;;;14.25;3.85;;;;;;;;;;5016885;28;20026;-66
2022/04/07 02:38:22;;;;;;;14.13;3.80;;;;;;;;;;5020853;28;20411;-66
2022/04/07 02:40:48;;;;;;;10.85;3.50;;;;;;;;;;5027656;28;20031;-66
2022/04/07 02:43:15;;;;;;;9.82;3.45;;;;;;;;;;5019307;28;20115;-66
2022/04/07 02:45:41;;;;;;;15.20;3.67;;;;;;;;;;5025619;28;20034;-66
2022/04/07 02:48:07;;;;;;;9.68;3.40;;;;;;;;;;5023565;28;20044;-66
2022/04/07 02:50:33;;;;;;;13.15;3.60;;;;;;;;;;5016861;28;21361;-66
2022/04/07 02:52:59;;;;;;;10.35;3.40;;;;;;;;;;5023996;28;20048;-66
2022/04/07 02:55:27;;;;;;;13.50;3.70;;;;;;;;;;5023670;28;20060;-67
2022/04/07 02:57:53;;;;;;;14.27;3.78;;;;;;;;;;5021623;28;20053;-67
2022/04/07 03:00:19;;;;;;;13.93;3.38;;;;;;;;;;5016376;28;20048;-68
2022/04/07 03:02:46;;;;;;;13.20;3.65;;;;;;;;;;5015324;28;20222;-65
2022/04/07 03:05:12;;;;;;;15.98;4.07;;;;;;;;;;5018283;28;20394;-65
2022/04/07 03:07:38;;;;;;;17.85;3.83;;;;;;;;;;5015597;28;20502;-65
2022/04/07 03:10:05;;;;;;;15.32;4.00;;;;;;;;;;5019119;28;20554;-66
2022/04/07 03:12:31;;;;;;;17.85;3.83;;;;;;;;;;5010921;28;20041;-66
2022/04/07 03:14:57;;;;;;;17.23;4.47;;;;;;;;;;5019752;28;20031;-66
2022/04/07 03:17:23;;;;;;;17.40;4.55;;;;;;;;;;5015404;28;20442;-66
2022/04/07 03:19:49;;;;;;;19.55;4.85;;;;;;;;;;5021581;28;20028;-66
2022/04/07 03:22:18;;;;;;;17.65;3.70;;;;;;;;;;5016803;28;20039;-66
2022/04/07 03:24:44;;;;;;;16.73;4.25;;;;;;;;;;5024304;28;20346;-66
2022/04/07 03:27:10;;;;;;;15.20;3.90;;;;;;;;;;5019473;28;20379;-66
2022/04/07 03:29:37;;;;;;;18.38;4.45;;;;;;;;;;5013982;28;20029;-66
2022/04/07 03:32:04;;;;;;;21.75;4.35;;;;;;;;;;5024914;28;20037;-66
2022/04/07 03:34:31;;;;;;;15.77;4.45;;;;;;;;;;5017836;28;20036;-66
2022/04/07 03:36:57;;;;;;;16.40;4.35;;;;;;;;;;5019854;28;20029;-67
2022/04/07 03:39:23;;;;;;;18.55;4.03;;;;;;;;;;5016592;28;20052;-66
2022/04/07 03:41:49;;;;;;;17.60;4.20;;;;;;;;;;5017754;28;20091;-66
2022/04/07 03:44:15;;;;;;;22.60;4.55;;;;;;;;;;5013230;28;20029;-66
2022/04/07 03:46:42;;;;;;;21.42;4.32;;;;;;;;;;5024187;28;20112;-67
2022/04/07 03:49:08;;;;;;;17.35;4.75;;;;;;;;;;5013371;28;20029;-67
2022/04/07 03:51:34;;;;;;;17.98;6.80;;;;;;;;;;5013727;28;20542;-67
2022/04/07 03:54:01;;;;;;;25.42;6.20;;;;;;;;;;5014509;28;20084;-66
2022/04/07 03:56:27;;;;;;;23.10;5.80;;;;;;;;;;5016385;28;20733;-66
2022/04/07 03:58:53;;;;;;;17.95;5.32;;;;;;;;;;5021185;28;20040;-67
2022/04/07 04:01:19;;;;;;;16.38;4.50;;;;;;;;;;5014828;28;20037;-66
2022/04/07 04:03:46;;;;;;;16.80;4.20;;;;;;;;;;5020943;28;20134;-66
2022/04/07 04:06:12;;;;;;;18.90;4.72;;;;;;;;;;5013917;28;20033;-66
2022/04/07 04:08:38;;;;;;;21.38;5.78;;;;;;;;;;5014619;28;20033;-67
2022/04/07 04:11:04;;;;;;;21.35;8.35;;;;;;;;;;5018407;28;20689;-66
2022/04/07 04:13:31;;;;;;;23.35;10.27;;;;;;;;;;5013809;28;20111;-66
2022/04/07 04:15:58;;;;;;;23.60;7.40;;;;;;;;;;5014471;28;20033;-66
2022/04/07 04:18:24;;;;;;;25.73;6.35;;;;;;;;;;5012213;28;20107;-67
2022/04/07 04:20:50;;;;;;;17.92;6.10;;;;;;;;;;5015582;28;20041;-67
2022/04/07 04:23:16;;;;;;;23.52;6.68;;;;;;;;;;5027316;28;20112;-66
2022/04/07 04:25:43;;;;;;;26.63;5.90;;;;;;;;;;5014885;28;20198;-67
2022/04/07 04:28:09;;;;;;;22.60;5.13;;;;;;;;;;5017443;28;20483;-66
2022/04/07 04:30:35;;;;;;;21.67;5.00;;;;;;;;;;5014362;28;20112;-67
2022/04/07 04:33:01;;;;;;;;;;;;;;;;;;5018059;28;20036;-67
2022/04/07 04:35:27;;;;;;;22.30;5.85;;;;;;;;;;5040552;28;19931;-66
2022/04/07 04:37:54;;;;;;;22.15;5.30;;;;;;;;;;5015589;28;20423;-66
2022/04/07 04:40:21;;;;;;;21.85;5.78;;;;;;;;;;5020514;28;20246;-67
2022/04/07 04:42:47;;;;;;;21.50;4.60;;;;;;;;;;5015756;28;20167;-67
2022/04/07 04:45:13;;;;;;;18.27;5.13;;;;;;;;;;5016480;28;20040;-66
2022/04/07 04:47:40;;;;;;;18.05;5.13;;;;;;;;;;5027756;28;20065;-67
2022/04/07 04:50:06;;;;;;;14.88;4.15;;;;;;;;;;5013114;28;20018;-67
2022/04/07 04:52:32;;;;;;;;;;;;;;;;;;5016379;28;20725;-67
2022/04/07 04:54:59;;;;;;;16.27;4.15;;;;;;;;;;5013751;28;20718;-66
2022/04/07 04:57:25;;;;;;;21.42;5.05;;;;;;;;;;5010407;28;20092;-66
2022/04/07 04:59:51;;;;;;;17.73;4.50;;;;;;;;;;5015597;28;20249;-66
2022/04/07 05:02:17;;;;;;;21.70;5.28;;;;;;;;;;5011793;28;20391;-67
2022/04/07 05:04:43;;;;;;;21.45;6.35;;;;;;;;;;5024409;28;20112;-67
2022/04/07 05:07:10;;;;;;;19.05;6.03;;;;;;;;;;5019050;28;20036;-68
2022/04/07 05:09:37;;;;;;;21.48;5.78;;;;;;;;;;5008644;28;20132;-67
2022/04/07 05:12:04;;;;;;;21.10;5.20;;;;;;;;;;5011953;28;20343;-66
2022/04/07 05:14:30;;;;;;;18.63;5.30;;;;;;;;;;5025328;28;20359;-66
2022/04/07 05:16:56;;;;;;;22.42;5.43;;;;;;;;;;5025342;28;20037;-67
2022/04/07 05:19:22;;;;;;;21.27;5.22;;;;;;;;;;5028277;28;20025;-67
2022/04/07 05:21:50;;;;;;;22.75;5.70;;;;;;;;;;5024478;28;20033;-67
2022/04/07 05:24:17;;;;;;;24.63;6.15;;;;;;;;;;5024484;28;20025;-67
2022/04/07 05:26:44;;;;;;;23.23;5.45;;;;;;;;;;5028658;28;20029;-67
2022/04/07 05:29:10;;;;;;;19.00;4.65;;;;;;;;;;5025008;28;20033;-67
2022/04/07 05:31:36;;;;;;;18.90;5.18;;;;;;;;;;5028726;28;20040;-66
2022/04/07 05:34:03;;;;;;;18.95;4.72;;;;;;;;;;5027955;28;20789;-67
2022/04/07 05:36:29;;;;;;;19.45;4.53;;;;;;;;;;5030828;28;20355;-66
2022/04/07 05:38:55;;;;;;;20.50;5.50;;;;;;;;;;5026892;28;20395;-66
2022/04/07 05:41:21;;;;;;;26.90;5.75;;;;;;;;;;5022016;28;20442;-66
2022/04/07 05:43:47;;;;;;;22.98;5.40;;;;;;;;;;5034010;28;20033;-67
2022/04/07 05:46:13;;;;;;;18.98;4.63;;;;;;;;;;5032369;28;20466;-67
2022/04/07 05:48:40;;;;;;;23.77;4.30;;;;;;;;;;5027207;28;20029;-67
2022/04/07 05:51:06;;;;;;;15.48;4.30;;;;;;;;;;5014662;28;20483;-66
2022/04/07 05:53:32;;;;;;;14.13;4.50;;;;;;;;;;5013615;28;20037;-66
2022/04/07 05:55:58;;;;;;;17.60;4.05;;;;;;;;;;5017583;28;20045;-66
2022/04/07 05:58:24;;;;;;;;;;;;;;;;;;5012568;28;20041;-66
2022/04/07 06:00:51;;;;;;;17.67;3.97;;;;;;;;;;5021596;28;19994;-66
2022/04/07 06:03:17;;;;;;;;;;;;;;;;;;5023339;28;20048;-66
2022/04/07 06:05:43;;;;;;;15.05;4.22;;;;;;;;;;5011891;28;19917;-66
2022/04/07 06:08:09;;;;;;;16.38;4.20;;;;;;;;;;5017072;28;20079;-66
2022/04/07 06:10:36;;;;;;;14.65;4.28;;;;;;;;;;5013732;28;20386;-67
2022/04/07 06:13:02;;;;;;;14.95;3.70;;;;;;;;;;5032377;28;20056;-66
2022/04/07 06:15:29;;;;;;;;;;;;;;;;;;5027501;28;20060;-66
2022/04/07 06:17:56;;;;;;;17.40;3.70;;;;;;;;;;5032628;28;20272;-66
2022/04/07 06:20:22;;;;;;;16.05;4.68;;;;;;;;;;5026102;28;20031;-66
2022/04/07 06:22:48;;;;;;;14.30;3.95;;;;;;;;;;5024669;28;20032;-67
2022/04/07 06:25:15;;;;;;;18.05;4.95;;;;;;;;;;5024994;28;20070;-67
2022/04/07 06:27:42;;;;;;;21.35;5.47;;;;;;;;;;5026219;28;20434;-66
2022/04/07 06:30:10;;;;;;;19.75;4.60;;;;;;;;;;5025924;28;20340;-67
2022/04/07 06:32:37;;;;;;;18.70;4.20;;;;;;;;;;5024097;28;20038;-66
2022/04/07 06:35:03;;;;;;;16.70;4.88;;;;;;;;;;5027083;28;20435;-66
2022/04/07 06:37:29;;;;;;;20.63;4.38;;;;;;;;;;5016704;28;20094;-68
2022/04/07 06:40:00;;;;;;;12.52;4.07;;;;;;;;;;5022811;28;20026;-67
2022/04/07 06:42:26;;;;;;;14.38;3.92;;;;;;;;;;5030004;28;20027;-67
2022/04/07 06:44:55;;;;;;;17.55;3.70;;;;;;;;;;5027297;28;20029;-68
2022/04/07 06:47:22;;;;;;;14.38;3.95;;;;;;;;;;5028232;28;20040;-68
2022/04/07 06:49:49;;;;;;;15.00;3.60;;;;;;;;;;5027250;28;20035;-67
2022/04/07 06:52:16;;;;;;;15.02;3.40;;;;;;;;;;5027847;28;20566;-67
2022/04/07 06:54:42;;;;;;;12.57;3.40;;;;;;;;;;5025632;28;20051;-66
2022/04/07 06:57:08;;;;;;;15.75;3.53;;;;;;;;;;5022196;28;20148;-67
2022/04/07 06:59:34;;;;;;;10.95;3.15;;;;;;;;;;5029325;28;20673;-66
2022/04/07 07:02:00;;;;;;;14.82;3.55;;;;;;;;;;5029042;28;20568;-66
2022/04/07 07:04:26;;;;;;;14.00;3.45;;;;;;;;;;5021439;28;20390;-66
2022/04/07 07:06:53;;;;;;;15.02;3.65;;;;;;;;;;5022781;28;20075;-66
2022/04/07 07:09:19;;;;;;;12.23;3.47;;;;;;;;;;5015186;28;20071;-66
2022/04/07 07:11:45;;;;;;;18.60;3.50;;;;;;;;;;5015726;28;20034;-67
2022/04/07 07:14:11;;;;;;;14.60;3.17;;;;;;;;;;5007058;28;20753;-66
2022/04/07 07:16:37;;;;;;;12.48;3.42;;;;;;;;;;5015564;28;20049;-67
2022/04/07 07:19:03;;;;;;;10.48;2.47;;;;;;;;;;5015400;28;20338;-67
2022/04/07 07:21:29;;;;;;;14.13;2.80;;;;;;;;;;5024883;28;20022;-67
2022/04/07 07:23:56;;;;;;;10.07;2.92;;;;;;;;;;5026561;28;20071;-67
2022/04/07 07:26:22;;;;;;;16.23;2.78;;;;;;;;;;5028496;28;20275;-67
2022/04/07 07:28:48;;;;;;;10.52;2.75;;;;;;;;;;5018839;28;20056;-67
2022/04/07 07:31:14;;;;;;;12.75;2.90;;;;;;;;;;5028931;28;20433;-67
2022/04/07 07:33:40;;;;;;;12.38;3.78;;;;;;;;;;5026608;28;20094;-68
2022/04/07 07:36:07;;;;;;;15.18;3.38;;;;;;;;;;5027265;28;20528;-67
2022/04/07 07:38:33;;;;;;;13.35;4.00;;;;;;;;;;5015981;28;20030;-67
2022/04/07 07:40:59;;;;;;;13.70;4.88;;;;;;;;;;5022009;28;20029;-67
2022/04/07 07:43:25;;;;;;;16.40;5.00;;;;;;;;;;5016093;28;20466;-67
2022/04/07 07:45:51;;;;;;;19.67;6.00;;;;;;;;;;5013561;28;20743;-67
2022/04/07 07:48:18;;;;;;;12.82;4.68;;;;;;;;;;5012586;28;20553;-67
2022/04/07 07:50:45;;;;;;;13.15;3.50;;;;;;;;;;5015686;28;20431;-67
2022/04/07 07:53:14;;;;;;;13.50;5.03;;;;;;;;;;5017098;28;20060;-65
2022/04/07 07:55:40;;;;;;;10.38;2.40;;;;;;;;;;5019004;28;20026;-65
2022/04/07 07:58:06;;;;;;;10.40;2.80;;;;;;;;;;5013849;28;20056;-63
2022/04/07 08:00:32;;;;;;;13.43;3.00;;;;;;;;;;5021464;28;20035;-64
2022/04/07 08:02:58;;;;;;;7.90;2.10;;;;;;;;;;5021857;28;20411;-65
2022/04/07 08:05:25;;;;;;;10.40;2.40;;;;;;;;;;5015065;28;20022;-69
2022/04/07 08:07:51;;;;;;;11.10;2.65;;;;;;;;;;5018618;28;20137;-72
2022/04/07 08:10:17;;;;;;;9.75;2.50;;;;;;;;;;5013881;28;20029;-70
2022/04/07 08:12:43;;;;;;;11.75;2.83;;;;;;;;;;5014721;28;20025;-70
2022/04/07 08:15:10;;;;;;;14.32;3.10;;;;;;;;;;5015191;28;20040;-69
2022/04/07 08:17:36;;;;;;;;;;;;;;;;;;5012099;28;20442;-69
2022/04/07 08:20:03;;;;;;;10.63;2.58;;;;;;;;;;5015257;28;19987;-69
2022/04/07 08:22:30;;;;;;;13.27;3.60;;;;;;;;;;5014182;28;20071;-70
2022/04/07 08:24:57;;;;;;;13.90;3.33;;;;;;;;;;5014449;28;20047;-69
2022/04/07 08:27:26;;;;;;;;;;;;;;;;;;5015487;28;20486;-69
2022/04/07 08:29:52;;;;;;;14.15;2.78;;;;;;;;;;5021860;28;20087;-69
2022/04/07 08:32:19;;;;;;;9.65;2.70;;;;;;;;;;5013120;28;20033;-69
2022/04/07 08:34:45;;;;;;;11.32;2.67;;;;;;;;;;5016349;28;20033;-69
2022/04/07 08:37:12;;;;;;;7.68;1.98;;;;;;;;;;5016031;28;20176;-69
2022/04/07 08:39:38;;;;;;;12.85;2.33;;;;;;;;;;5018747;28;20745;-69
2022/04/07 08:42:04;;;;;;;;;;;;;;;;;;5018602;28;20140;-69
2022/04/07 08:44:33;;;;;;;9.50;2.75;;;;;;;;;;5013745;28;19939;-69
2022/04/07 08:47:00;;;;;;;9.40;2.60;;;;;;;;;;5018790;28;20024;-69
2022/04/07 08:49:29;;;;;;;16.27;2.80;;;;;;;;;;5008908;28;20026;-70
2022/04/07 08:51:55;;;;;;;11.35;2.67;;;;;;;;;;5013522;28;20068;-69
2022/04/07 08:54:21;;;;;;;;;;;;;;;;;;5013377;28;20037;-69
2022/04/07 08:56:48;;;;;;;13.23;2.65;;;;;;;;;;5022785;28;20057;-70
2022/04/07 08:59:14;;;;;;;10.60;2.55;;;;;;;;;;5011523;28;20076;-69
2022/04/07 09:01:41;;;;;;;9.95;2.47;;;;;;;;;;5023478;28;20059;-69
2022/04/07 09:04:07;;;;;;;;;;;;;;;;;;5014507;28;20041;-69
2022/04/07 09:06:38;;;;;;;15.60;2.78;;;;;;;;;;5011752;28;19935;-70
2022/04/07 09:09:10;;;;;;;8.23;2.38;;;;;;;;;;5017423;28;20028;-70
2022/04/07 09:11:37;;;;;;;8.55;2.15;;;;;;;;;;5019131;28;20032;-70
2022/04/07 09:14:03;;;;;;;;;;;;;;;;;;5011894;28;20442;-69
2022/04/07 09:16:29;;;;;;;7.40;2.10;;;;;;;;;;5016021;28;19913;-70
2022/04/07 09:18:55;;;;;;;;;;;;;;;;;;5014324;28;20033;-70
2022/04/07 09:21:27;;;;;;;8.32;2.40;;;;;;;;;;5016224;28;19924;-69
2022/04/07 09:23:58;;;;;;;10.18;2.78;;;;;;;;;;5010590;28;20329;-69
2022/04/07 09:26:24;;;;;;;9.70;2.50;;;;;;;;;;5016210;28;20033;-69
2022/04/07 09:28:50;;;;;;;;;;;;;;;;;;5016832;28;20334;-69
2022/04/07 09:31:17;;;;;;;9.20;2.55;;;;;;;;;;5011910;28;19912;-69
2022/04/07 09:33:44;;;;;;;12.85;2.45;;;;;;;;;;5013474;28;20442;-70
2022/04/07 09:36:11;;;;;;;9.52;2.65;;;;;;;;;;5015240;28;20591;-69
2022/04/07 09:38:38;;;;;;;12.45;2.83;;;;;;;;;;5013605;28;20062;-69
2022/04/07 09:41:04;;;;;;;10.18;3.05;;;;;;;;;;5015475;28;20462;-69
2022/04/07 09:43:31;;;;;;;11.48;3.20;;;;;;;;;;5016413;28;20045;-68
2022/04/07 09:45:57;;;;;;;11.15;3.20;;;;;;;;;;5012776;28;20032;-69
2022/04/07 09:48:27;;;;;;;;;;;;;;;;;;5017110;28;20108;-69
2022/04/07 09:51:03;;;;;;;11.15;3.15;;;;;;;;;;5012284;28;19912;-68
2022/04/07 09:53:36;;;;;;;10.88;3.33;;;;;;;;;;5013516;28;20053;-70
2022/04/07 09:56:02;;;;;;;13.43;3.28;;;;;;;;;;5013028;28;20068;-69
2022/04/07 09:58:29;;;;;;;11.02;3.10;;;;;;;;;;5011291;28;20053;-69
2022/04/07 10:00:59;;;;;;;11.65;3.17;;;;;;;;;;5017205;28;20124;-69
2022/04/07 10:03:26;;;;;;;10.40;3.10;;;;;;;;;;5012899;28;20033;-69
2022/04/07 10:05:54;;;;;;;16.35;3.35;;;;;;;;;;5018066;28;20049;-69
2022/04/07 10:08:20;;;;;;;;;;;;;;;;;;5015620;28;20054;-69
2022/04/07 10:10:47;;;;;;;17.17;3.80;;;;;;;;;;5014719;28;19912;-69
2022/04/07 10:13:15;;;;;;;15.35;4.18;;;;;;;;;;5016021;28;20080;-69
2022/04/07 10:15:43;;;;;;;17.10;4.10;;;;;;;;;;5013952;28;20105;-68
2022/04/07 10:18:15;;;;;;;24.95;4.47;;;;;;;;;;5017250;28;20364;-69
2022/04/07 10:20:44;;;;;;;16.63;4.22;;;;;;;;;;5020120;28;20038;-69
2022/04/07 10:23:32;;;;;;;15.93;3.83;;;;;;;;;;5011245;28;20450;-68
2022/04/07 10:25:59;;;;;;;14.55;3.47;;;;;;;;;;5019230;28;20029;-68
2022/04/07 10:28:26;;;;;;;16.42;3.63;;;;;;;;;;5008533;28;20375;-69
2022/04/07 10:30:53;;;;;;;14.20;3.72;;;;;;;;;;5015370;28;20049;-69
2022/04/07 10:33:40;;;;;;;17.60;3.67;;;;;;;;;;5008852;28;20025;-68
2022/04/07 10:36:07;;;;;;;13.52;3.38;;;;;;;;;;5017186;28;20029;-68
2022/04/07 10:38:41;;;;;;;16.83;3.72;;;;;;;;;;5011100;28;20049;-68
2022/04/07 10:41:08;;;;;;;19.02;3.92;;;;;;;;;;5019539;28;20040;-69
2022/04/07 10:43:38;;;;;;;18.83;4.03;;;;;;;;;;5008275;28;20044;-68
2022/04/07 10:46:07;;;;;;;17.63;3.65;;;;;;;;;;5017457;28;20028;-68
2022/04/07 10:49:00;;;;;;;16.75;3.38;;;;;;;;;;5007353;28;20038;-69
2022/04/07 10:51:48;;;;;;;17.20;4.10;;;;;;;;;;5013359;28;20021;-68
2022/04/07 10:54:15;;;;;;;15.05;3.08;;;;;;;;;;5019737;28;20140;-67
2022/04/07 10:56:51;;;;;;;13.88;3.15;;;;;;;;;;5021492;28;20032;-69
2022/04/07 10:59:20;;;;;;;13.30;3.63;;;;;;;;;;5019284;28;20064;-69
2022/04/07 11:01:57;;;;;;;12.65;3.47;;;;;;;;;;5019654;28;20026;-69
2022/04/07 11:04:23;;;;;;;;;;;;;;;;;;5012676;28;20514;-69
2022/04/07 11:07:19;;;;;;;15.93;3.67;;;;;;;;;;5019095;28;19939;-69
2022/04/07 11:09:53;;;;;;;13.82;3.42;;;;;;;;;;5016362;28;20479;-69
2022/04/07 11:12:37;;;;;;;16.00;3.40;;;;;;;;;;5016482;28;20036;-68
2022/04/07 11:15:04;;;;;;;15.00;3.70;;;;;;;;;;5018564;28;20771;-70
2022/04/07 11:17:36;;;;;;;17.38;3.40;;;;;;;;;;5020238;28;20451;-70
2022/04/07 11:20:15;;;;;;;13.18;3.65;;;;;;;;;;5018209;28;20033;-70
2022/04/07 11:22:55;;;;;;;13.25;3.67;;;;;;;;;;5016080;28;20481;-70
2022/04/07 11:25:24;;;;;;;14.85;3.90;;;;;;;;;;5016169;28;20044;-70
2022/04/07 11:28:10;;;;;;;13.45;3.42;;;;;;;;;;5017088;28;20025;-70
2022/04/07 11:30:41;;;;;;;14.00;3.63;;;;;;;;;;5019515;28;20035;-69
2022/04/07 11:33:15;;;;;;;11.07;2.45;;;;;;;;;;5018936;28;20029;-69
2022/04/07 11:35:41;;;;;;;6.93;1.45;;;;;;;;;;5024049;28;20037;-70
2022/04/07 11:38:07;;;;;;;3.63;1.05;;;;;;;;;;5022666;28;20028;-70
2022/04/07 11:40:33;;;;;;;3.90;1.08;;;;;;;;;;5018605;28;20850;-70
2022/04/07 11:43:00;;;;;;;4.93;1.02;;;;;;;;;;5021418;28;20042;-71
2022/04/07 11:45:32;;;;;;;5.20;1.20;;;;;;;;;;5017814;28;20902;-69
2022/04/07 11:47:58;;;;;;;5.82;1.38;;;;;;;;;;5017214;28;20505;-68
2022/04/07 11:50:24;;;;;;;4.60;1.08;;;;;;;;;;5016734;28;20495;-69
2022/04/07 11:52:51;;;;;;;4.35;1.20;;;;;;;;;;5023354;28;20033;-69
2022/04/07 11:55:29;;;;;;;10.57;2.80;;;;;;;;;;5013903;28;20082;-69
2022/04/07 11:58:01;;;;;;;13.20;3.10;;;;;;;;;;5021324;28;20065;-69
2022/04/07 12:00:31;;;;;;;12.50;2.88;;;;;;;;;;5013360;28;20124;-71
2022/04/07 12:03:05;;;;;;;14.23;3.28;;;;;;;;;;5023797;28;20496;-70
2022/04/07 12:05:31;;;;;;;12.25;3.25;;;;;;;;;;5021304;28;20072;-69
2022/04/07 12:07:57;;;;;;;12.63;2.83;;;;;;;;;;5020716;28;20039;-69
2022/04/07 12:10:24;;;;;;;12.35;3.30;;;;;;;;;;5025934;28;20039;-70
2022/04/07 12:12:50;;;;;;;15.18;3.40;;;;;;;;;;5025641;28;20410;-68
2022/04/07 12:15:17;;;;;;;17.70;3.03;;;;;;;;;;5017661;28;20033;-70
2022/04/07 12:18:03;;;;;;;13.68;2.85;;;;;;;;;;5021222;28;20479;-68
2022/04/07 12:20:30;;;;;;;17.17;3.35;;;;;;;;;;5025629;28;20039;-69
2022/04/07 12:23:05;;;;;;;12.05;2.75;;;;;;;;;;5020540;28;20114;-68
2022/04/07 12:25:31;;;;;;;10.63;2.88;;;;;;;;;;5014248;28;20131;-69
2022/04/07 12:28:07;;;;;;;16.23;3.75;;;;;;;;;;5018991;28;20040;-66
2022/04/07 12:30:55;;;;;;;13.75;3.60;;;;;;;;;;5010721;28;20035;-71
2022/04/07 12:33:40;;;;;;;14.63;3.10;;;;;;;;;;5006333;28;20427;-68
2022/04/07 12:36:13;;;;;;;12.77;3.45;;;;;;;;;;5033856;28;20498;-69
2022/04/07 12:38:41;;;;;;;11.57;3.38;;;;;;;;;;5009211;28;20033;-68
2022/04/07 12:41:16;;;;;;;14.65;3.28;;;;;;;;;;5025740;28;20041;-69
2022/04/07 12:43:50;;;;;;;13.43;3.40;;;;;;;;;;5010557;28;20037;-73
2022/04/07 12:46:20;;;;;;;14.32;3.67;;;;;;;;;;5028982;28;20480;-69
2022/04/07 12:49:05;;;;;;;11.85;3.40;;;;;;;;;;5024517;28;20095;-69
2022/04/07 12:51:33;;;;;;;13.88;2.92;;;;;;;;;;5019167;28;20429;-68
2022/04/07 12:54:13;;;;;;;14.65;3.20;;;;;;;;;;5011814;28;20398;-69
2022/04/07 12:56:41;;;;;;;11.93;2.75;;;;;;;;;;5016979;28;20372;-69
2022/04/07 12:59:12;;;;;;;14.50;3.03;;;;;;;;;;5009707;28;20060;-68
2022/04/07 13:01:40;;;;;;;13.00;3.15;;;;;;;;;;5014428;28;20455;-69
2022/04/07 13:04:09;;;;;;;13.48;2.95;;;;;;;;;;5014480;28;20136;-69
2022/04/07 13:06:37;;;;;;;11.38;3.00;;;;;;;;;;5018190;28;20510;-68
2022/04/07 13:09:05;;;;;;;11.73;3.00;;;;;;;;;;5014398;28;20041;-68
2022/04/07 13:11:38;;;;;;;12.05;3.15;;;;;;;;;;5013897;28;20467;-68
2022/04/07 13:14:06;;;;;;;15.27;2.88;;;;;;;;;;5016247;28;20098;-69
2022/04/07 13:16:32;;;;;;;14.02;2.85;;;;;;;;;;5014997;28;20036;-69
2022/04/07 13:18:58;;;;;;;14.32;3.00;;;;;;;;;;5017166;28;20503;-68
2022/04/07 13:21:25;;;;;;;15.02;3.17;;;;;;;;;;5015308;28;20037;-69
2022/04/07 13:23:51;;;;;;;15.43;5.95;;;;;;;;;;5015492;28;20311;-65
2022/04/07 13:26:17;;;;;;;9.60;2.63;;;;;;;;;;5017313;28;20386;-68
2022/04/07 13:28:46;;;;;;;11.50;2.83;;;;;;;;;;5018888;28;20440;-66
2022/04/07 13:31:13;;;;;;;10.93;2.65;;;;;;;;;;5018189;28;20041;-66
2022/04/07 13:33:39;;;;;;;13.52;2.75;;;;;;;;;;5010765;28;20447;-66
2022/04/07 13:36:06;;;;;;;9.48;2.47;;;;;;;;;;5018920;28;20513;-65
2022/04/07 13:38:33;;;;;;;10.65;2.80;;;;;;;;;;5014317;28;20033;-66
2022/04/07 13:41:00;;;;;;;12.50;2.50;;;;;;;;;;5023144;28;20383;-66
2022/04/07 13:43:28;;;;;;;10.13;2.60;;;;;;;;;;5017830;28;20067;-66
2022/04/07 13:45:55;;;;;;;10.60;2.60;;;;;;;;;;5021838;28;20616;-66
2022/04/07 13:48:22;;;;;;;11.48;2.65;;;;;;;;;;5016224;28;20116;-67
2022/04/07 13:50:48;;;;;;;10.25;2.78;;;;;;;;;;5017880;28;20020;-66
2022/04/07 13:53:16;;;;;;;10.05;2.70;;;;;;;;;;5017242;28;20026;-65
2022/04/07 13:55:45;;;;;;;11.20;2.75;;;;;;;;;;5015920;28;20521;-67
2022/04/07 13:58:12;;;;;;;13.57;2.50;;;;;;;;;;5016026;28;20056;-66
2022/04/07 14:00:39;;;;;;;8.18;2.38;;;;;;;;;;5015016;28;20130;-66
2022/04/07 14:03:05;;;;;;;10.23;2.67;;;;;;;;;;5017435;28;20036;-65
2022/04/07 14:05:32;;;;;;;7.85;2.25;;;;;;;;;;5008054;28;20029;-66
2022/04/07 14:07:58;;;;;;;11.57;2.47;;;;;;;;;;5010901;28;20167;-63
2022/04/07 14:10:24;;;;;;;10.48;2.40;;;;;;;;;;5007981;28;20366;-63
2022/04/07 14:12:50;;;;;;;8.65;2.30;;;;;;;;;;5010344;28;20036;-63
2022/04/07 14:15:17;;;;;;;12.70;2.40;;;;;;;;;;5004666;28;20443;-63
2022/04/07 14:17:43;;;;;;;10.25;2.03;;;;;;;;;;5018096;28;20052;-64
2022/04/07 14:20:11;;;;;;;10.00;2.60;;;;;;;;;;5013866;28;20068;-63
2022/04/07 14:22:38;;;;;;;8.20;2.25;;;;;;;;;;5009930;28;20037;-63
2022/04/07 14:25:04;;;;;;;8.32;2.10;;;;;;;;;;5012966;28;20134;-63
2022/04/07 14:27:31;;;;;;;10.48;2.55;;;;;;;;;;5007457;28;20025;-71
2022/04/07 14:29:57;;;;;;;9.98;2.45;;;;;;;;;;5009058;28;20117;-69
2022/04/07 14:32:23;;;;;;;10.23;2.10;;;;;;;;;;5015114;28;20017;-70
2022/04/07 14:34:49;;;;;;;8.50;2.30;;;;;;;;;;5017748;28;20110;-69
2022/04/07 14:37:16;;;;;;;9.07;2.30;;;;;;;;;;5013734;28;20136;-69
2022/04/07 14:39:42;;;;;;;9.57;2.30;;;;;;;;;;5027082;28;20098;-69
2022/04/07 14:42:08;;;;;;;13.93;2.45;;;;;;;;;;5025279;28;20463;-69